createdAt,value
2022-10-02T00:00:07.717Z,34.05
2022-10-02T00:02:55.442Z,22.60
2022-10-02T00:05:36.105Z,28.02
2022-10-02T00:08:13.163Z,28.55
2022-10-02T00:10:59.283Z,35.72
2022-10-02T00:13:37.612Z,32.13
2022-10-02T00:18:39.760Z,37.08
2022-10-02T00:21:34.577Z,25.90
2022-10-02T00:24:07.781Z,27.85
2022-10-02T00:26:52.364Z,31.58
2022-10-02T00:32:28.827Z,31.10
2022-10-02T00:35:21.245Z,30.67
2022-10-02T00:38:12.683Z,33.33
2022-10-02T00:41:19.385Z,35.92
2022-10-02T00:44:26.055Z,29.52
2022-10-02T00:47:10.153Z,37.97
2022-10-02T00:50:20.312Z,30.02
2022-10-02T00:53:03.048Z,30.48
2022-10-02T00:55:57.194Z,32.60
2022-10-02T00:58:45.430Z,33.95
2022-10-02T01:01:19.785Z,26.55
2022-10-02T01:03:54.421Z,25.60
2022-10-02T01:06:27.375Z,20.00
2022-10-02T01:08:55.851Z,28.23
2022-10-02T01:11:27.034Z,25.80
2022-10-02T01:13:54.351Z,19.98
2022-10-02T01:16:21.147Z,23.35
2022-10-02T01:18:48.352Z,24.60
2022-10-02T01:21:30.787Z,22.13
2022-10-02T01:24:15.128Z,22.40
2022-10-02T01:26:42.460Z,23.38
2022-10-02T01:29:09.325Z,15.65
2022-10-02T01:31:36.454Z,22.25
2022-10-02T01:34:04.261Z,19.42
2022-10-02T01:36:31.595Z,18.85
2022-10-02T01:38:59.926Z,17.88
2022-10-02T01:41:28.443Z,17.52
2022-10-02T01:44:01.485Z,19.38
2022-10-02T01:47:05.033Z,28.25
2022-10-02T01:52:38.447Z,17.90
2022-10-02T01:55:32.766Z,28.88
2022-10-02T01:58:24.530Z,17.67
2022-10-02T02:01:00.397Z,22.70
2022-10-02T02:03:47.179Z,25.98
2022-10-02T02:06:55.906Z,25.02
2022-10-02T02:09:37.886Z,31.50
2022-10-02T02:12:15.313Z,17.13
2022-10-02T02:14:51.779Z,26.85
2022-10-02T02:17:34.189Z,29.15
2022-10-02T02:20:14.220Z,27.35
2022-10-02T02:22:51.749Z,26.08
2022-10-02T02:25:30.160Z,18.27
2022-10-02T02:28:04.925Z,15.85
2022-10-02T02:30:36.861Z,29.85
2022-10-02T02:33:14.576Z,30.02
2022-10-02T02:35:49.237Z,24.65
2022-10-02T02:38:27.739Z,18.65
2022-10-02T02:41:03.541Z,30.60
2022-10-02T02:43:44.473Z,27.48
2022-10-02T02:46:27.255Z,19.33
2022-10-02T02:49:13.359Z,23.75
2022-10-02T02:51:46.809Z,26.77
2022-10-02T02:54:54.998Z,23.45
2022-10-02T02:57:32.617Z,23.85
2022-10-02T03:00:02.420Z,21.15
2022-10-02T03:02:29.358Z,19.08
2022-10-02T03:04:56.091Z,24.23
2022-10-02T03:07:22.883Z,24.67
2022-10-02T03:10:45.718Z,20.80
2022-10-02T03:13:37.887Z,21.05
2022-10-02T03:16:56.832Z,23.38
2022-10-02T03:19:50.545Z,19.00
2022-10-02T03:23:14.373Z,24.10
2022-10-02T03:25:53.410Z,19.55
2022-10-02T03:28:58.839Z,19.63
2022-10-02T03:31:31.858Z,22.85
2022-10-02T03:34:02.398Z,28.80
2022-10-02T03:36:31.498Z,17.88
2022-10-02T03:41:50.148Z,27.40
2022-10-02T03:44:16.914Z,17.17
2022-10-02T03:46:43.704Z,20.38
2022-10-02T03:49:10.480Z,16.65
2022-10-02T03:51:37.386Z,11.07
2022-10-02T03:54:16.547Z,20.55
2022-10-02T03:57:08.292Z,19.73
2022-10-02T04:00:03.555Z,25.52
2022-10-02T04:02:44.666Z,17.05
2022-10-02T04:05:33.968Z,12.43
2022-10-02T04:08:19.317Z,15.20
2022-10-02T04:10:53.068Z,18.05
2022-10-02T04:13:32.141Z,11.00
2022-10-02T04:16:12.780Z,22.70
2022-10-02T04:18:55.527Z,18.40
2022-10-02T04:21:37.223Z,15.07
2022-10-02T04:24:44.569Z,11.50
2022-10-02T04:27:33.157Z,16.20
2022-10-02T04:30:06.825Z,10.68
2022-10-02T04:32:36.886Z,10.77
2022-10-02T04:35:14.976Z,11.18
2022-10-02T04:38:08.866Z,11.77
2022-10-02T04:41:13.837Z,6.80
2022-10-02T04:43:58.722Z,10.73
2022-10-02T04:46:49.312Z,11.93
2022-10-02T04:50:13.402Z,13.20
2022-10-02T04:53:18.132Z,14.60
2022-10-02T04:56:17.341Z,13.25
2022-10-02T04:59:11.160Z,11.02
2022-10-02T05:02:04.854Z,11.02
2022-10-02T05:05:08.305Z,15.60
2022-10-02T05:08:05.087Z,11.02
2022-10-02T05:11:08.553Z,8.25
2022-10-02T05:13:56.671Z,15.90
2022-10-02T05:16:33.335Z,17.52
2022-10-02T05:19:50.101Z,13.90
2022-10-02T05:22:46.383Z,13.48
2022-10-02T05:26:03.436Z,11.15
2022-10-02T05:28:48.763Z,13.32
2022-10-02T05:32:06.551Z,9.65
2022-10-02T05:35:01.053Z,11.75
2022-10-02T05:37:52.533Z,17.20
2022-10-02T05:40:43.435Z,15.18
2022-10-02T05:43:33.191Z,19.73
2022-10-02T05:46:10.242Z,22.17
2022-10-02T05:49:05.946Z,13.77
2022-10-02T05:52:04.607Z,15.95
2022-10-02T05:55:03.809Z,18.10
2022-10-02T05:57:51.656Z,18.60
2022-10-02T06:00:29.784Z,19.25
2022-10-02T06:04:00.055Z,17.13
2022-10-02T06:06:39.090Z,19.27
2022-10-02T06:09:20.644Z,18.45
2022-10-02T06:11:59.783Z,16.73
2022-10-02T06:14:49.845Z,25.38
2022-10-02T06:17:59.398Z,26.25
2022-10-02T06:20:37.746Z,30.88
2022-10-02T06:26:04.606Z,24.13
2022-10-02T06:28:43.999Z,33.47
2022-10-02T06:31:47.058Z,23.35
2022-10-02T06:34:15.313Z,31.52
2022-10-02T06:36:54.006Z,30.10
2022-10-02T06:39:57.767Z,30.88
2022-10-02T06:42:55.165Z,33.20
2022-10-02T06:46:12.804Z,27.02
2022-10-02T06:49:19.605Z,28.17
2022-10-02T06:52:25.620Z,24.92
2022-10-02T06:55:13.541Z,25.38
2022-10-02T06:58:08.175Z,25.08
2022-10-02T07:00:49.890Z,29.20
2022-10-02T07:03:56.554Z,26.90
2022-10-02T07:06:50.493Z,24.23
2022-10-02T07:09:29.394Z,22.52
2022-10-02T07:12:26.190Z,26.48
2022-10-02T07:15:37.667Z,24.15
2022-10-02T07:18:16.171Z,21.38
2022-10-02T07:24:11.312Z,14.23
2022-10-02T07:26:49.175Z,23.23
2022-10-02T07:29:56.532Z,17.58
2022-10-02T07:32:42.438Z,16.27
2022-10-02T07:35:36.964Z,18.63
2022-10-02T07:38:45.030Z,22.98
2022-10-02T07:41:37.545Z,24.23
2022-10-02T07:44:32.878Z,15.50
2022-10-02T07:47:21.539Z,22.35
2022-10-02T07:50:00.205Z,24.73
2022-10-02T07:53:02.916Z,12.30
2022-10-02T07:55:30.257Z,13.82
2022-10-02T07:58:06.337Z,20.90
2022-10-02T08:00:46.599Z,18.73
2022-10-02T08:03:24.468Z,15.63
2022-10-02T08:05:55.866Z,16.63
2022-10-02T08:08:39.252Z,15.77
2022-10-02T08:11:30.315Z,14.75
2022-10-02T08:14:07.387Z,16.95
2022-10-02T08:16:48.068Z,13.88
2022-10-02T08:19:21.951Z,19.30
2022-10-02T08:21:58.497Z,14.85
2022-10-02T08:24:44.984Z,17.77
2022-10-02T08:27:56.061Z,10.77
2022-10-02T08:30:22.858Z,18.27
2022-10-02T08:32:49.564Z,14.23
2022-10-02T08:35:19.741Z,14.98
2022-10-02T08:38:19.886Z,15.60
2022-10-02T08:41:15.977Z,11.15
2022-10-02T08:44:23.837Z,16.98
2022-10-02T08:46:58.219Z,14.30
2022-10-02T08:49:52.586Z,17.00
2022-10-02T08:52:37.538Z,17.33
2022-10-02T08:55:27.193Z,18.13
2022-10-02T08:58:21.473Z,12.98
2022-10-02T09:01:19.365Z,15.60
2022-10-02T09:04:32.333Z,15.27
2022-10-02T09:07:30.212Z,15.77
2022-10-02T09:10:27.422Z,13.73
2022-10-02T09:13:35.598Z,10.27
2022-10-02T09:16:24.286Z,14.45
2022-10-02T09:19:01.050Z,19.50
2022-10-02T09:21:51.712Z,12.00
2022-10-02T09:25:01.391Z,11.52
2022-10-02T09:30:47.870Z,15.43
2022-10-02T09:33:48.207Z,15.50
2022-10-02T09:36:54.962Z,17.83
2022-10-02T09:40:08.779Z,13.52
2022-10-02T09:43:17.442Z,10.07
2022-10-02T09:46:48.109Z,8.32
2022-10-02T09:50:05.679Z,12.57
2022-10-02T09:52:47.117Z,12.38
2022-10-02T09:55:58.714Z,12.05
2022-10-02T09:58:57.173Z,12.82
2022-10-02T10:02:03.772Z,14.05
2022-10-02T10:05:35.206Z,13.73
2022-10-02T10:08:29.763Z,7.28
2022-10-02T10:11:31.035Z,6.82
2022-10-02T10:14:37.844Z,12.27
2022-10-02T10:18:10.382Z,13.75
2022-10-02T10:21:09.414Z,17.08
2022-10-02T10:24:09.866Z,16.65
2022-10-02T10:27:21.320Z,11.80
2022-10-02T10:30:15.146Z,6.93
2022-10-02T10:33:34.457Z,10.02
2022-10-02T10:36:41.157Z,12.10
2022-10-02T10:39:47.253Z,10.07
2022-10-02T10:43:08.016Z,6.60
2022-10-02T10:46:11.431Z,10.98
2022-10-02T10:49:00.522Z,10.80
2022-10-02T10:51:41.676Z,19.92
2022-10-02T10:54:26.414Z,6.75
2022-10-02T10:57:22.258Z,11.93
2022-10-02T11:00:22.573Z,9.40
2022-10-02T11:03:11.133Z,7.60
2022-10-02T11:06:12.167Z,10.70
2022-10-02T11:09:09.559Z,13.60
2022-10-02T11:12:13.185Z,9.27
2022-10-02T11:14:54.507Z,8.60
2022-10-02T11:18:15.597Z,8.35
2022-10-02T11:21:59.330Z,9.00
2022-10-02T11:25:12.913Z,8.90
2022-10-02T11:28:01.188Z,7.65
2022-10-02T11:31:26.894Z,10.57
2022-10-02T11:34:27.613Z,10.65
2022-10-02T11:37:07.817Z,17.23
2022-10-02T11:39:59.217Z,13.73
2022-10-02T11:43:02.857Z,9.40
2022-10-02T11:45:55.561Z,9.57
2022-10-02T11:48:48.626Z,8.85
2022-10-02T11:51:27.493Z,10.85
2022-10-02T11:54:48.508Z,13.85
2022-10-02T11:58:16.379Z,10.57
2022-10-02T12:01:17.022Z,9.10
2022-10-02T12:03:57.161Z,10.90
2022-10-02T12:07:09.449Z,8.07
2022-10-02T12:10:10.439Z,9.57
2022-10-02T12:12:52.020Z,10.90
2022-10-02T12:15:26.609Z,9.32
2022-10-02T12:18:36.610Z,9.65
2022-10-02T12:21:43.533Z,5.35
2022-10-02T12:25:06.383Z,9.48
2022-10-02T12:28:12.359Z,10.25
2022-10-02T12:31:05.875Z,13.48
2022-10-02T12:33:52.998Z,9.88
2022-10-02T12:36:47.705Z,9.25
2022-10-02T12:39:22.110Z,13.30
2022-10-02T12:42:03.661Z,10.25
2022-10-02T12:45:22.958Z,11.45
2022-10-02T12:48:27.692Z,12.52
2022-10-02T12:51:21.281Z,7.22
2022-10-02T12:54:01.475Z,6.25
2022-10-02T12:57:36.627Z,12.02
2022-10-02T13:00:16.619Z,13.90
2022-10-02T13:03:25.175Z,11.75
2022-10-02T13:06:23.396Z,7.50
2022-10-02T13:09:30.562Z,7.57
2022-10-02T13:12:39.313Z,9.85
2022-10-02T13:15:44.661Z,9.48
2022-10-02T13:18:55.397Z,6.85
2022-10-02T13:21:39.241Z,7.57
2022-10-02T13:24:14.879Z,7.90
2022-10-02T13:27:06.344Z,5.60
2022-10-02T13:30:01.291Z,7.38
2022-10-02T13:33:06.127Z,6.70
2022-10-02T13:35:59.554Z,6.95
2022-10-02T13:38:52.710Z,7.40
2022-10-02T13:41:31.172Z,7.15
2022-10-02T13:44:16.036Z,11.38
2022-10-02T13:47:41.046Z,7.88
2022-10-02T13:50:46.449Z,12.95
2022-10-02T13:53:31.058Z,6.25
2022-10-02T13:56:20.800Z,7.18
2022-10-02T13:59:11.228Z,10.07
2022-10-02T14:02:25.813Z,6.72
2022-10-02T14:05:12.772Z,9.05
2022-10-02T14:07:51.169Z,7.80
2022-10-02T14:10:39.089Z,6.05
2022-10-02T14:13:30.963Z,6.75
2022-10-02T14:16:28.246Z,8.45
2022-10-02T14:19:11.194Z,6.20
2022-10-02T14:22:07.064Z,7.32
2022-10-02T14:25:03.806Z,7.70
2022-10-02T14:28:02.264Z,8.15
2022-10-02T14:31:29.102Z,8.57
2022-10-02T14:34:31.991Z,8.80
2022-10-02T14:37:24.256Z,7.40
2022-10-02T14:39:52.978Z,5.45
2022-10-02T14:42:51.125Z,7.00
2022-10-02T14:45:57.271Z,5.20
2022-10-02T14:49:06.625Z,7.45
2022-10-02T14:51:37.068Z,7.28
2022-10-02T14:54:42.184Z,7.57
2022-10-02T14:57:30.336Z,6.03
2022-10-02T15:00:09.397Z,4.85
2022-10-02T15:03:11.590Z,7.82
2022-10-02T15:06:00.170Z,5.20
2022-10-02T15:08:39.793Z,7.68
2022-10-02T15:11:22.701Z,7.50
2022-10-02T15:14:07.105Z,11.88
2022-10-02T15:17:05.906Z,8.30
2022-10-02T15:20:11.169Z,6.75
2022-10-02T15:23:18.121Z,8.13
2022-10-02T15:26:48.550Z,7.63
2022-10-02T15:29:44.806Z,8.15
2022-10-02T15:32:45.455Z,8.35
2022-10-02T15:35:21.123Z,10.88
2022-10-02T15:38:30.491Z,9.02
2022-10-02T15:44:27.415Z,8.85
2022-10-02T15:47:29.613Z,6.43
2022-10-02T15:50:29.449Z,7.45
2022-10-02T15:53:32.910Z,7.93
2022-10-02T15:56:31.847Z,6.38
2022-10-02T15:59:30.775Z,4.97
2022-10-02T16:02:06.638Z,9.13
2022-10-02T16:05:01.794Z,10.13
2022-10-02T16:07:56.540Z,6.45
2022-10-02T16:10:57.120Z,10.05
2022-10-02T16:13:47.469Z,8.35
2022-10-02T16:16:59.458Z,9.13
2022-10-02T16:19:56.053Z,5.13
2022-10-02T16:22:32.670Z,8.25
2022-10-02T16:25:28.929Z,6.68
2022-10-02T16:28:23.579Z,12.55
2022-10-02T16:30:50.313Z,14.00
2022-10-02T16:33:39.125Z,10.95
2022-10-02T16:36:31.839Z,5.22
2022-10-02T16:39:31.933Z,9.68
2022-10-02T16:42:12.051Z,9.50
2022-10-02T16:45:27.590Z,12.45
2022-10-02T16:48:42.835Z,9.80
2022-10-02T16:51:33.559Z,11.13
2022-10-02T16:54:23.230Z,14.43
2022-10-02T16:56:56.984Z,8.83
2022-10-02T16:59:28.288Z,5.18
2022-10-02T17:02:19.516Z,13.02
2022-10-02T17:05:02.033Z,12.98
2022-10-02T17:08:50.374Z,8.15
2022-10-02T17:11:38.093Z,9.52
2022-10-02T17:14:31.044Z,8.38
2022-10-02T17:17:08.562Z,11.20
2022-10-02T17:19:55.477Z,10.55
2022-10-02T17:22:41.597Z,10.40
2022-10-02T17:25:36.083Z,10.55
2022-10-02T17:28:08.754Z,14.68
2022-10-02T17:31:43.370Z,13.95
2022-10-02T17:34:21.013Z,7.93
2022-10-02T17:37:04.043Z,10.55
2022-10-02T17:39:55.012Z,17.15
2022-10-02T17:46:19.643Z,8.43
2022-10-02T17:49:30.141Z,16.98
2022-10-02T17:52:36.608Z,10.77
2022-10-02T17:55:43.308Z,8.00
2022-10-02T17:58:57.796Z,11.55
2022-10-02T18:01:36.861Z,12.63
2022-10-02T18:04:42.935Z,9.88
2022-10-02T18:08:06.600Z,13.05
2022-10-02T18:11:01.820Z,7.90
2022-10-02T18:14:37.231Z,9.85
2022-10-02T18:17:29.273Z,10.48
2022-10-02T18:20:34.784Z,9.70
2022-10-02T18:23:47.372Z,15.10
2022-10-02T18:26:26.181Z,12.35
2022-10-02T18:29:16.807Z,16.50
2022-10-02T18:32:20.973Z,10.13
2022-10-02T18:35:14.298Z,9.65
2022-10-02T18:38:22.459Z,9.40
2022-10-02T18:41:19.244Z,15.13
2022-10-02T18:44:45.109Z,9.63
2022-10-02T18:47:31.564Z,11.40
2022-10-02T18:50:16.580Z,12.27
2022-10-02T18:53:04.322Z,13.57
2022-10-02T18:55:56.551Z,11.10
2022-10-02T18:58:49.740Z,12.25
2022-10-02T19:04:52.011Z,11.60
2022-10-02T19:07:29.387Z,11.93
2022-10-02T19:10:47.922Z,15.68
2022-10-02T19:13:38.039Z,13.88
2022-10-02T19:16:23.048Z,14.18
2022-10-02T19:18:50.030Z,9.70
2022-10-02T19:21:21.695Z,12.35
2022-10-02T19:24:01.461Z,10.90
2022-10-02T19:26:34.903Z,21.33
2022-10-02T19:29:58.798Z,9.65
2022-10-02T19:32:41.235Z,11.32
2022-10-02T19:35:28.549Z,13.10
2022-10-02T19:38:09.601Z,13.43
2022-10-02T19:40:37.278Z,13.00
2022-10-02T19:43:31.014Z,13.02
2022-10-02T19:46:04.259Z,17.48
2022-10-02T19:48:33.214Z,9.88
2022-10-02T19:51:08.411Z,16.73
2022-10-02T19:53:50.575Z,11.13
2022-10-02T19:56:35.137Z,17.45
2022-10-02T19:59:41.790Z,14.77
2022-10-02T20:02:36.648Z,12.75
2022-10-02T20:05:11.401Z,10.95
2022-10-02T20:07:40.626Z,13.32
2022-10-02T20:11:06.035Z,13.90
2022-10-02T20:13:44.434Z,14.65
2022-10-02T20:19:08.818Z,20.15
2022-10-02T20:21:53.109Z,14.85
2022-10-02T20:24:35.825Z,17.08
2022-10-02T20:27:17.580Z,13.52
2022-10-02T20:29:54.869Z,17.90
2022-10-02T20:32:31.457Z,16.70
2022-10-02T20:35:06.293Z,11.57
2022-10-02T20:37:34.986Z,15.05
2022-10-02T20:40:13.360Z,12.27
2022-10-02T20:45:53.075Z,19.33
2022-10-02T20:49:13.002Z,16.58
2022-10-02T20:52:10.546Z,16.15
2022-10-02T20:54:40.930Z,15.80
2022-10-02T20:57:56.255Z,17.65
2022-10-02T21:00:28.825Z,14.57
2022-10-02T21:03:19.914Z,17.38
2022-10-02T21:09:06.124Z,19.80
2022-10-02T21:12:17.097Z,20.08
2022-10-02T21:14:55.781Z,19.17
2022-10-02T21:17:46.733Z,13.02
2022-10-02T21:23:55.631Z,11.98
2022-10-02T21:27:06.993Z,13.10
2022-10-02T21:30:16.893Z,13.98
2022-10-02T21:35:56.818Z,13.38
2022-10-02T21:38:50.279Z,17.85
2022-10-02T21:41:47.117Z,13.65
2022-10-02T21:45:04.419Z,16.15
2022-10-02T21:48:10.301Z,15.38
2022-10-02T21:50:58.402Z,21.17
2022-10-02T21:54:21.027Z,13.82
2022-10-02T21:57:27.362Z,14.25
2022-10-02T22:00:21.852Z,14.25
2022-10-02T22:03:20.764Z,17.83
2022-10-02T22:06:19.685Z,11.80
2022-10-02T22:09:30.428Z,15.10
2022-10-02T22:12:22.191Z,11.85
2022-10-02T22:15:08.702Z,18.02
2022-10-02T22:17:56.085Z,19.30
2022-10-02T22:20:53.567Z,10.20
2022-10-02T22:23:44.445Z,12.35
2022-10-02T22:26:23.352Z,15.13
2022-10-02T22:29:03.273Z,16.33
2022-10-02T22:32:40.792Z,14.50
2022-10-02T22:35:37.613Z,18.40
2022-10-02T22:38:22.367Z,15.15
2022-10-02T22:43:27.529Z,19.17
2022-10-02T22:46:09.527Z,11.52
2022-10-02T22:48:44.025Z,17.27
2022-10-02T22:51:31.124Z,14.55
2022-10-02T22:54:32.746Z,16.98
2022-10-02T22:57:02.404Z,11.73
2022-10-02T22:59:42.353Z,17.63
2022-10-02T23:02:19.861Z,14.60
2022-10-02T23:05:05.718Z,14.00
2022-10-02T23:07:50.997Z,18.88
2022-10-02T23:10:40.114Z,14.88
2022-10-02T23:13:09.847Z,12.25
2022-10-02T23:16:08.266Z,14.43
2022-10-02T23:18:40.829Z,14.73
2022-10-02T23:21:52.327Z,13.20
2022-10-02T23:24:44.500Z,12.40
2022-10-02T23:27:16.509Z,14.30
2022-10-02T23:30:05.082Z,14.38
2022-10-02T23:33:03.570Z,15.45
2022-10-02T23:35:55.722Z,15.60
2022-10-02T23:39:02.553Z,15.90
2022-10-02T23:41:46.430Z,12.50
2022-10-02T23:44:18.872Z,17.77
2022-10-02T23:46:48.851Z,13.02
2022-10-02T23:49:23.933Z,13.18
2022-10-02T23:52:31.780Z,13.50
2022-10-02T23:55:23.759Z,11.60
2022-10-02T23:58:29.221Z,14.60
